createdAt,value
2019-03-30T03:14:01.616Z,95.89
2019-03-30T03:15:01.566Z,95.84
2019-03-30T03:16:01.551Z,96.03
2019-03-30T03:17:01.538Z,96.12
2019-03-30T03:18:01.548Z,96.31
2019-03-30T03:19:01.585Z,96.12
2019-03-30T03:20:01.538Z,95.84
2019-03-30T03:21:07.979Z,96.12
2019-03-30T03:22:01.501Z,96.41
2019-03-30T03:23:01.483Z,97.50
2019-03-30T03:24:01.471Z,96.60
2019-03-30T03:25:01.476Z,96.69
2019-03-30T03:26:01.472Z,96.22
2019-03-30T03:27:01.476Z,95.75
2019-03-30T03:28:01.432Z,95.27
2019-03-30T03:29:01.423Z,93.94
2019-03-30T03:30:01.588Z,93.94
2019-03-30T03:31:01.414Z,93.56
2019-03-30T03:32:01.385Z,93.46
2019-03-30T03:33:01.388Z,93.37
2019-03-30T03:34:01.377Z,93.18
2019-03-30T03:35:01.390Z,92.42
2019-03-30T03:36:01.361Z,92.61
2019-03-30T03:37:01.386Z,93.18
2019-03-30T03:38:01.336Z,93.94
2019-03-30T03:39:01.325Z,94.32
2019-03-30T03:40:01.331Z,94.13
2019-03-30T03:41:01.311Z,94.13
2019-03-30T03:42:01.303Z,94.93
2019-03-30T03:43:01.302Z,96.22
2019-03-30T03:44:01.288Z,96.17
2019-03-30T03:45:01.283Z,96.64
2019-03-30T03:46:01.266Z,96.12
2019-03-30T03:47:01.272Z,95.17
2019-03-30T03:48:01.247Z,95.89
2019-03-30T03:49:01.244Z,96.36
2019-03-30T03:50:01.267Z,95.98
2019-03-30T03:51:01.235Z,95.41
2019-03-30T03:52:01.254Z,95.22
2019-03-30T03:53:01.206Z,95.31
2019-03-30T03:54:01.197Z,95.31
2019-03-30T03:55:01.200Z,95.98
2019-03-30T03:56:01.230Z,96.08
2019-03-30T03:57:01.324Z,97.88
2019-03-30T03:58:01.162Z,98.26
2019-03-30T03:59:01.196Z,99.35
2019-03-30T04:00:01.153Z,99.99
2019-03-30T04:01:01.178Z,99.99
2019-03-30T04:02:01.128Z,99.99
2019-03-30T04:03:01.113Z,99.99
2019-03-30T04:04:01.169Z,99.99
2019-03-30T04:05:01.148Z,99.91
2019-03-30T04:06:01.090Z,99.40
2019-03-30T04:07:01.144Z,99.58
2019-03-30T04:08:01.108Z,98.92
2019-03-30T04:09:01.078Z,99.99
2019-03-30T04:10:01.110Z,99.99
2019-03-30T04:11:01.113Z,99.99
2019-03-30T04:12:01.052Z,99.99
2019-03-30T04:13:01.059Z,99.99
2019-03-30T04:14:01.021Z,99.99
2019-03-30T04:15:01.071Z,99.99
2019-03-30T04:16:01.148Z,99.99
2019-03-30T04:17:09.892Z,99.99
2019-03-30T04:19:05.784Z,99.99
2019-03-30T04:20:05.696Z,99.99
2019-03-30T04:21:05.492Z,99.99
2019-03-30T04:22:05.585Z,99.63
2019-03-30T04:23:05.554Z,99.54
2019-03-30T04:24:05.545Z,99.44
2019-03-30T04:25:05.556Z,98.26
2019-03-30T04:26:05.582Z,98.73
2019-03-30T04:27:05.544Z,99.35
2019-03-30T04:28:05.574Z,99.44
2019-03-30T04:29:05.600Z,99.54
2019-03-30T04:30:05.598Z,99.16
2019-03-30T04:31:05.549Z,99.82
2019-03-30T04:32:05.575Z,99.99
2019-03-30T04:33:05.578Z,99.73
2019-03-30T04:34:05.544Z,99.99
2019-03-30T04:35:05.458Z,99.99
2019-03-30T04:36:05.889Z,99.99
2019-03-30T04:37:05.390Z,99.99
2019-03-30T04:38:05.334Z,99.99
2019-03-30T04:39:05.293Z,99.99
2019-03-30T04:40:05.633Z,99.99
2019-03-30T04:41:05.337Z,99.99
2019-03-30T04:42:05.383Z,99.99
2019-03-30T04:43:05.393Z,99.99
2019-03-30T04:44:05.250Z,99.99
2019-03-30T04:45:05.278Z,99.99
2019-03-30T04:46:05.240Z,99.99
2019-03-30T04:47:05.272Z,99.99
2019-03-30T04:48:05.270Z,99.99
2019-03-30T04:49:05.242Z,99.99
2019-03-30T04:50:05.191Z,99.99
2019-03-30T04:51:05.208Z,99.99
2019-03-30T04:52:05.180Z,99.99
2019-03-30T04:53:05.201Z,99.99
2019-03-30T04:54:05.184Z,99.99
2019-03-30T04:55:05.179Z,99.99
2019-03-30T04:56:05.162Z,99.99
2019-03-30T04:57:05.201Z,99.99
2019-03-30T04:58:05.156Z,99.54
2019-03-30T04:59:05.119Z,99.26
2019-03-30T05:00:05.101Z,99.16
2019-03-30T05:01:05.105Z,99.54
2019-03-30T05:02:05.079Z,99.44
2019-03-30T05:03:05.086Z,99.26
2019-03-30T05:04:05.075Z,99.44
2019-03-30T05:05:05.052Z,99.44
2019-03-30T05:06:05.048Z,99.99
2019-03-30T05:07:05.079Z,99.99
2019-03-30T05:08:05.050Z,99.99
2019-03-30T05:09:05.066Z,99.35
2019-03-30T05:10:05.004Z,99.63
2019-03-30T05:11:05.012Z,98.68
2019-03-30T05:12:05.019Z,98.49
2019-03-30T05:13:04.978Z,97.97
2019-03-30T05:14:05.018Z,98.30
2019-03-30T05:15:05.006Z,98.68
2019-03-30T05:16:05.029Z,99.06
2019-03-30T05:17:04.951Z,98.59
2019-03-30T05:18:04.943Z,98.40
2019-03-30T05:19:04.949Z,98.49
2019-03-30T05:20:04.947Z,98.68
2019-03-30T05:21:04.950Z,98.21
2019-03-30T05:22:12.100Z,98.68
2019-03-30T05:23:04.925Z,99.63
2019-03-30T05:24:04.877Z,99.06
2019-03-30T05:25:04.873Z,98.49
2019-03-30T05:26:04.868Z,98.40
2019-03-30T05:27:04.854Z,99.54
2019-03-30T05:28:04.896Z,99.06
2019-03-30T05:29:04.908Z,99.54
2019-03-30T05:30:04.898Z,99.99
2019-03-30T05:31:04.817Z,99.99
2019-03-30T05:32:13.718Z,99.99
2019-03-30T05:34:09.390Z,99.99
2019-03-30T05:35:09.457Z,99.99
2019-03-30T05:36:09.365Z,99.99
2019-03-30T05:37:09.489Z,99.99
2019-03-30T05:38:09.256Z,99.99
2019-03-30T05:39:09.264Z,99.99
2019-03-30T05:40:09.300Z,99.99
2019-03-30T05:41:09.238Z,99.99
2019-03-30T05:42:09.226Z,99.99
2019-03-30T05:43:09.193Z,99.99
2019-03-30T05:44:09.261Z,99.99
2019-03-30T05:45:09.192Z,99.99
2019-03-30T05:46:09.172Z,99.99
2019-03-30T05:47:09.211Z,99.99
2019-03-30T05:48:09.149Z,99.99
2019-03-30T05:49:09.146Z,99.97
2019-03-30T05:50:09.138Z,99.58
2019-03-30T05:51:09.149Z,99.21
2019-03-30T05:52:09.212Z,99.49
2019-03-30T05:53:09.148Z,99.11
2019-03-30T05:54:09.109Z,98.73
2019-03-30T05:55:09.129Z,98.73
2019-03-30T05:56:09.126Z,98.92
2019-03-30T05:57:09.111Z,98.92
2019-03-30T05:58:09.096Z,98.92
2019-03-30T05:59:09.093Z,97.88
2019-03-30T06:00:09.119Z,97.88
2019-03-30T06:01:09.122Z,98.54
2019-03-30T06:02:09.043Z,98.45
2019-03-30T06:03:09.067Z,98.45
2019-03-30T06:04:09.031Z,98.92
2019-03-30T06:05:09.075Z,98.83
2019-03-30T06:06:09.066Z,98.64
2019-03-30T06:07:17.832Z,98.07
2019-03-30T06:09:13.527Z,96.79
2019-03-30T06:10:13.467Z,96.12
2019-03-30T06:11:13.480Z,95.55
2019-03-30T06:12:13.479Z,95.17
2019-03-30T06:13:13.483Z,95.17
2019-03-30T06:14:13.473Z,95.36
2019-03-30T06:15:13.487Z,94.89
2019-03-30T06:16:13.433Z,94.42
2019-03-30T06:17:13.443Z,94.51
2019-03-30T06:18:13.408Z,94.42
2019-03-30T06:19:13.495Z,95.27
2019-03-30T06:20:13.413Z,94.56
2019-03-30T06:21:13.407Z,94.18
2019-03-30T06:22:13.388Z,95.41
2019-03-30T06:23:13.372Z,95.22
2019-03-30T06:24:13.363Z,94.93
2019-03-30T06:25:13.357Z,94.27
2019-03-30T06:26:13.364Z,94.84
2019-03-30T06:27:13.345Z,94.65
2019-03-30T06:28:13.327Z,94.65
2019-03-30T06:29:13.322Z,95.03
2019-03-30T06:30:13.339Z,94.74
2019-03-30T06:31:13.303Z,94.56
2019-03-30T06:32:13.295Z,94.65
2019-03-30T06:33:13.324Z,94.56
2019-03-30T06:34:13.290Z,94.74
2019-03-30T06:35:13.292Z,95.12
2019-03-30T06:36:13.270Z,94.46
2019-03-30T06:37:13.267Z,94.93
2019-03-30T06:38:13.254Z,94.84
2019-03-30T06:39:13.256Z,94.65
2019-03-30T06:40:13.264Z,94.37
2019-03-30T06:41:13.225Z,94.32
2019-03-30T06:42:13.226Z,94.22
2019-03-30T06:43:13.210Z,95.56
2019-03-30T06:44:13.233Z,95.27
2019-03-30T06:45:13.219Z,95.17
2019-03-30T06:46:13.199Z,94.60
2019-03-30T06:47:13.224Z,93.84
2019-03-30T06:48:13.210Z,94.42
2019-03-30T06:49:13.162Z,94.13
2019-03-30T06:50:13.154Z,94.60
2019-03-30T06:51:13.163Z,95.65
2019-03-30T06:52:13.156Z,95.08
2019-03-30T06:53:13.140Z,95.51
2019-03-30T06:54:14.757Z,94.46
2019-03-30T06:55:13.125Z,95.03
2019-03-30T06:56:13.120Z,95.12
2019-03-30T06:57:13.125Z,94.93
2019-03-30T06:58:13.106Z,93.98
2019-03-30T06:59:13.094Z,94.37
2019-03-30T07:00:13.134Z,93.70
2019-03-30T07:01:13.090Z,93.04
2019-03-30T07:02:13.080Z,93.13
2019-03-30T07:03:13.074Z,93.13
2019-03-30T07:04:13.072Z,92.08
2019-03-30T07:05:13.060Z,91.42
2019-03-30T07:06:13.071Z,91.51
2019-03-30T07:07:13.079Z,91.84
2019-03-30T07:08:13.053Z,91.46
2019-03-30T07:09:13.027Z,91.37
2019-03-30T07:10:13.054Z,91.08
2019-03-30T07:11:21.033Z,90.89
2019-03-30T07:12:13.022Z,90.80
2019-03-30T07:13:13.025Z,90.61
2019-03-30T07:14:12.999Z,90.51
2019-03-30T07:15:13.023Z,90.32
2019-03-30T07:16:12.996Z,90.51
2019-03-30T07:17:13.003Z,90.32
2019-03-30T07:18:13.030Z,89.94
2019-03-30T07:19:12.959Z,90.13
2019-03-30T07:20:12.960Z,89.94
2019-03-30T07:21:12.979Z,89.94
2019-03-30T07:22:12.989Z,90.22
2019-03-30T07:23:13.061Z,89.56
2019-03-30T07:24:12.949Z,89.65
2019-03-30T07:25:12.959Z,89.65
2019-03-30T07:26:12.914Z,88.84
2019-03-30T07:27:12.921Z,89.18
2019-03-30T07:28:12.917Z,89.03
2019-03-30T07:29:12.898Z,88.75
2019-03-30T07:30:12.924Z,89.03
2019-03-30T07:31:12.903Z,89.32
2019-03-30T07:32:12.935Z,88.93
2019-03-30T07:33:12.877Z,89.13
2019-03-30T07:34:12.933Z,88.56
2019-03-30T07:35:12.852Z,88.08
2019-03-30T07:36:12.853Z,88.56
2019-03-30T07:37:12.856Z,88.27
2019-03-30T07:38:12.858Z,87.89
2019-03-30T07:39:12.863Z,88.37
2019-03-30T07:40:12.830Z,88.08
2019-03-30T07:41:12.833Z,87.51
2019-03-30T07:42:12.817Z,87.51
2019-03-30T07:43:12.914Z,87.03
2019-03-30T07:44:12.814Z,86.94
2019-03-30T07:45:12.840Z,87.23
2019-03-30T07:46:12.830Z,87.23
2019-03-30T07:47:12.840Z,87.13
2019-03-30T07:48:12.831Z,86.94
2019-03-30T07:49:12.822Z,86.18
2019-03-30T07:50:12.771Z,86.36
2019-03-30T07:51:12.832Z,86.46
2019-03-30T07:52:12.766Z,85.80
2019-03-30T07:53:25.550Z,86.27
2019-03-30T07:54:12.791Z,86.27
2019-03-30T07:55:12.759Z,86.36
2019-03-30T07:56:12.810Z,86.18
2019-03-30T07:57:17.127Z,86.03
2019-03-30T07:58:12.750Z,85.93
2019-03-30T07:59:12.772Z,85.64
2019-03-30T08:00:12.767Z,84.98
2019-03-30T08:01:12.722Z,85.64
2019-03-30T08:02:12.726Z,85.36
2019-03-30T08:03:12.722Z,85.08
2019-03-30T08:04:12.711Z,85.55
2019-03-30T08:05:12.675Z,85.74
2019-03-30T08:06:12.752Z,85.17
2019-03-30T08:07:12.669Z,84.69
2019-03-30T08:08:12.712Z,84.79
2019-03-30T08:09:12.676Z,84.88
2019-03-30T08:10:12.661Z,85.27
2019-03-30T08:11:14.417Z,85.36
2019-03-30T08:12:12.678Z,85.36
2019-03-30T08:13:12.674Z,84.79
2019-03-30T08:14:12.750Z,85.08
2019-03-30T08:15:12.700Z,85.64
2019-03-30T08:16:12.655Z,85.46
2019-03-30T08:17:12.637Z,85.36
2019-03-30T08:18:12.632Z,84.92
2019-03-30T08:19:12.646Z,84.92
2019-03-30T08:20:12.655Z,84.74
2019-03-30T08:21:12.640Z,85.02
2019-03-30T08:22:12.664Z,84.74
2019-03-30T08:23:12.573Z,84.55
2019-03-30T08:24:12.573Z,84.55
2019-03-30T08:25:12.579Z,84.64
2019-03-30T08:26:12.559Z,84.07
2019-03-30T08:27:12.606Z,84.26
2019-03-30T08:28:12.587Z,83.88
2019-03-30T08:29:12.583Z,84.07
2019-03-30T08:30:12.578Z,83.69
2019-03-30T08:31:12.548Z,84.36
2019-03-30T08:32:12.598Z,83.78
2019-03-30T08:33:12.516Z,83.59
2019-03-30T08:34:12.707Z,83.40
2019-03-30T08:35:12.560Z,83.59
2019-03-30T08:36:12.525Z,84.97
2019-03-30T08:37:12.502Z,84.30
2019-03-30T08:38:12.513Z,83.44
2019-03-30T08:39:12.571Z,83.06
2019-03-30T08:40:12.531Z,83.44
2019-03-30T08:41:12.487Z,82.68
2019-03-30T08:42:12.488Z,82.68
2019-03-30T08:43:12.493Z,82.49
2019-03-30T08:44:12.521Z,82.30
2019-03-30T08:45:12.512Z,82.20
2019-03-30T08:46:12.510Z,82.11
2019-03-30T08:47:12.453Z,82.01
2019-03-30T08:48:12.492Z,82.01
2019-03-30T08:49:12.514Z,82.49
2019-03-30T08:50:12.462Z,82.30
2019-03-30T08:51:12.431Z,82.68
2019-03-30T08:52:12.488Z,82.49
2019-03-30T08:53:12.472Z,82.01
2019-03-30T08:54:12.448Z,81.92
2019-03-30T08:55:12.441Z,81.15
2019-03-30T08:56:12.482Z,81.35
2019-03-30T08:57:12.469Z,80.91
2019-03-30T08:58:12.430Z,80.96
2019-03-30T08:59:12.396Z,81.10
2019-03-30T09:00:12.475Z,80.68
2019-03-30T09:01:12.415Z,81.01
2019-03-30T09:02:12.426Z,81.10
2019-03-30T09:03:12.450Z,80.72
2019-03-30T09:04:12.383Z,80.33
2019-03-30T09:05:12.390Z,80.72
2019-03-30T09:06:12.513Z,80.24
2019-03-30T09:07:12.364Z,80.62
2019-03-30T09:08:21.213Z,79.86
2019-03-30T09:11:47.412Z,80.05
2019-03-30T09:12:45.301Z,79.67
2019-03-30T09:13:45.387Z,79.77
2019-03-30T09:14:45.232Z,79.67
2019-03-30T09:15:45.187Z,79.48
2019-03-30T09:16:45.198Z,79.00
2019-03-30T09:17:45.198Z,79.14
2019-03-30T09:18:45.210Z,78.81
2019-03-30T09:19:45.203Z,78.47
2019-03-30T09:20:45.194Z,78.37
2019-03-30T09:21:45.179Z,77.70
2019-03-30T09:22:45.193Z,77.99
2019-03-30T09:23:45.147Z,77.51
2019-03-30T09:24:45.134Z,78.37
2019-03-30T09:25:45.155Z,78.18
2019-03-30T09:26:45.166Z,77.23
2019-03-30T09:27:45.165Z,76.56
2019-03-30T09:28:45.118Z,77.13
2019-03-30T09:29:45.147Z,76.75
2019-03-30T09:30:45.117Z,77.61
2019-03-30T09:31:45.128Z,77.80
2019-03-30T09:32:45.372Z,78.66
2019-03-30T09:33:45.137Z,78.09
2019-03-30T09:34:45.116Z,77.03
2019-03-30T09:35:45.089Z,76.50
2019-03-30T09:36:45.178Z,76.40
2019-03-30T09:37:45.096Z,76.31
2019-03-30T09:38:45.147Z,76.21
2019-03-30T09:39:45.138Z,75.83
2019-03-30T09:40:45.093Z,75.83
2019-03-30T09:41:45.062Z,75.16
2019-03-30T09:42:45.242Z,74.59
2019-03-30T09:43:45.059Z,74.98
2019-03-30T09:44:45.383Z,75.16
2019-03-30T09:45:45.097Z,74.53
2019-03-30T09:46:45.126Z,74.63
2019-03-30T09:47:45.041Z,74.24
2019-03-30T09:48:45.085Z,73.77
2019-03-30T09:49:45.040Z,73.86
2019-03-30T09:50:45.235Z,74.05
2019-03-30T09:51:45.204Z,74.24
2019-03-30T09:52:45.237Z,74.63
2019-03-30T09:53:45.146Z,73.86
2019-03-30T09:54:45.026Z,73.86
2019-03-30T09:55:45.044Z,73.86
2019-03-30T09:56:45.032Z,73.58
2019-03-30T09:57:44.995Z,73.39
2019-03-30T09:58:45.100Z,73.39
2019-03-30T09:59:45.089Z,73.67
2019-03-30T10:00:45.017Z,73.96
2019-03-30T10:01:45.065Z,73.48
2019-03-30T10:02:45.138Z,73.19
2019-03-30T10:03:50.742Z,72.53
2019-03-30T10:04:45.110Z,72.05
2019-03-30T10:05:45.006Z,71.42
2019-03-30T10:06:44.996Z,71.42
2019-03-30T10:07:44.972Z,72.18
2019-03-30T10:08:45.001Z,70.36
2019-03-30T10:09:47.229Z,70.17
2019-03-30T10:10:44.963Z,69.98
2019-03-30T10:11:44.967Z,70.36
2019-03-30T10:12:45.037Z,70.17
2019-03-30T10:13:44.957Z,70.46
2019-03-30T10:14:44.970Z,70.46
2019-03-30T10:15:45.048Z,70.40
2019-03-30T10:16:44.963Z,69.70
2019-03-30T10:17:44.935Z,69.41
2019-03-30T10:18:44.933Z,69.15
2019-03-30T10:19:48.281Z,69.44
2019-03-30T10:20:44.923Z,69.31
2019-03-30T10:21:44.916Z,70.78
2019-03-30T10:22:45.133Z,70.40
2019-03-30T10:23:44.913Z,69.35
2019-03-30T10:24:44.946Z,68.49
2019-03-30T10:25:44.914Z,68.77
2019-03-30T10:26:44.928Z,68.68
2019-03-30T10:27:44.941Z,68.01
2019-03-30T10:28:47.097Z,67.14
2019-03-30T10:29:44.901Z,66.00
2019-03-30T10:30:44.943Z,66.19
2019-03-30T10:31:44.893Z,66.96
2019-03-30T10:32:44.931Z,67.43
2019-03-30T10:33:44.881Z,67.05
2019-03-30T10:34:44.937Z,66.28
2019-03-30T10:35:44.892Z,66.32
2019-03-30T10:36:44.907Z,65.08
2019-03-30T10:37:44.872Z,64.22
2019-03-30T10:38:44.869Z,64.50
2019-03-30T10:39:44.914Z,63.93
2019-03-30T10:40:44.883Z,63.83
2019-03-30T10:41:44.922Z,64.31
2019-03-30T10:42:44.904Z,64.22
2019-03-30T10:43:44.852Z,63.93
2019-03-30T10:44:44.852Z,63.57
2019-03-30T10:45:44.911Z,63.76
2019-03-30T10:46:44.939Z,63.96
2019-03-30T10:47:44.871Z,64.05
2019-03-30T10:48:44.870Z,64.59
2019-03-30T10:49:44.838Z,64.43
2019-03-30T10:50:44.852Z,63.73
2019-03-30T10:51:44.900Z,63.64
2019-03-30T10:52:44.850Z,63.45
2019-03-30T10:53:44.829Z,63.57
2019-03-30T10:54:52.672Z,63.19
2019-03-30T10:55:44.830Z,62.43
2019-03-30T10:56:44.853Z,62.33
2019-03-30T10:57:44.837Z,62.33
2019-03-30T10:58:44.825Z,62.81
2019-03-30T10:59:44.831Z,62.90
2019-03-30T11:00:44.841Z,62.90
2019-03-30T11:01:44.808Z,63.89
2019-03-30T11:02:44.805Z,62.93
2019-03-30T11:03:44.806Z,62.17
2019-03-30T11:04:44.809Z,61.31
2019-03-30T11:05:44.801Z,60.64
2019-03-30T11:06:44.798Z,60.25
2019-03-30T11:07:44.808Z,60.89
2019-03-30T11:08:44.801Z,60.93
2019-03-30T11:09:44.796Z,60.64
2019-03-30T11:10:44.788Z,61.79
2019-03-30T11:11:44.813Z,61.02
2019-03-30T11:12:44.801Z,60.35
2019-03-30T11:13:44.781Z,60.25
2019-03-30T11:14:44.779Z,59.01
2019-03-30T11:15:44.789Z,58.62
2019-03-30T11:16:44.776Z,58.72
2019-03-30T11:17:44.863Z,58.72
2019-03-30T11:18:44.781Z,58.53
2019-03-30T11:19:44.782Z,58.53
2019-03-30T11:20:44.800Z,58.24
2019-03-30T11:21:44.768Z,58.62
2019-03-30T11:22:44.759Z,58.37
2019-03-30T11:23:44.776Z,57.67
2019-03-30T11:24:44.787Z,57.48
2019-03-30T11:25:44.783Z,57.70
2019-03-30T11:26:44.790Z,56.07
2019-03-30T11:27:44.753Z,55.97
2019-03-30T11:28:44.754Z,55.87
2019-03-30T11:29:44.754Z,56.26
2019-03-30T11:30:44.856Z,55.49
2019-03-30T11:31:44.763Z,54.63
2019-03-30T11:32:44.773Z,54.72
2019-03-30T11:33:44.785Z,54.44
2019-03-30T11:34:44.778Z,54.24
2019-03-30T11:35:44.785Z,54.15
2019-03-30T11:36:44.781Z,54.08
2019-03-30T11:37:44.770Z,54.75
2019-03-30T11:38:44.785Z,54.66
2019-03-30T11:39:44.783Z,54.37
2019-03-30T11:40:44.730Z,54.37
2019-03-30T11:41:44.730Z,54.17
2019-03-30T11:42:44.744Z,54.72
2019-03-30T11:43:44.737Z,54.53
2019-03-30T11:44:44.738Z,54.53
2019-03-30T11:45:44.759Z,54.82
2019-03-30T11:46:44.729Z,54.44
2019-03-30T11:47:44.760Z,54.34
2019-03-30T11:48:44.771Z,54.53
2019-03-30T11:49:44.752Z,54.72
2019-03-30T11:50:44.725Z,53.48
2019-03-30T11:51:44.780Z,53.99
2019-03-30T11:52:44.755Z,53.79
2019-03-30T11:53:44.729Z,53.70
2019-03-30T11:54:44.749Z,53.60
2019-03-30T11:55:44.868Z,53.03
2019-03-30T11:56:44.794Z,52.45
2019-03-30T11:57:44.731Z,52.23
2019-03-30T11:58:44.738Z,52.52
2019-03-30T11:59:44.758Z,52.26
2019-03-30T12:00:44.811Z,51.97
2019-03-30T12:01:44.818Z,52.26
2019-03-30T12:02:44.792Z,52.16
2019-03-30T12:03:44.709Z,52.74
2019-03-30T12:04:44.758Z,52.55
2019-03-30T12:05:44.711Z,53.41
2019-03-30T12:06:44.780Z,53.31
2019-03-30T12:07:44.810Z,52.45
2019-03-30T12:08:44.720Z,52.74
2019-03-30T12:09:44.704Z,52.26
2019-03-30T12:10:44.726Z,52.26
2019-03-30T12:11:44.726Z,51.78
2019-03-30T12:12:44.718Z,51.10
2019-03-30T12:13:44.719Z,52.26
2019-03-30T12:14:44.712Z,52.26
2019-03-30T12:15:44.693Z,52.55
2019-03-30T12:16:44.700Z,53.05
2019-03-30T12:17:44.692Z,52.57
2019-03-30T12:18:44.698Z,52.19
2019-03-30T12:19:44.689Z,51.20
2019-03-30T12:20:44.689Z,51.04
2019-03-30T12:21:44.687Z,50.17
2019-03-30T12:22:44.689Z,49.76
2019-03-30T12:23:44.691Z,49.86
2019-03-30T12:24:44.687Z,50.37
2019-03-30T12:25:44.683Z,50.05
2019-03-30T12:26:44.693Z,50.17
2019-03-30T12:27:44.688Z,50.08
2019-03-30T12:28:44.698Z,50.17
2019-03-30T12:29:44.838Z,50.84
2019-03-30T12:30:44.693Z,49.98
2019-03-30T12:31:44.686Z,49.41
2019-03-30T12:32:44.683Z,49.50
2019-03-30T12:33:44.683Z,49.33
2019-03-30T12:34:44.675Z,48.47
2019-03-30T12:35:44.699Z,48.35
2019-03-30T12:36:44.696Z,47.87
2019-03-30T12:37:44.682Z,47.89
2019-03-30T12:38:44.676Z,48.38
2019-03-30T12:39:44.673Z,47.22
2019-03-30T12:40:53.420Z,47.89
2019-03-30T12:42:49.186Z,47.61
2019-03-30T12:43:49.161Z,47.89
2019-03-30T12:44:49.157Z,47.32
2019-03-30T12:45:49.160Z,46.36
2019-03-30T12:46:49.155Z,45.30
2019-03-30T12:47:49.157Z,44.92
2019-03-30T12:48:49.171Z,45.01
2019-03-30T12:49:49.156Z,45.88
2019-03-30T12:50:49.162Z,46.36
2019-03-30T12:51:49.161Z,46.36
2019-03-30T12:52:49.172Z,46.26
2019-03-30T12:53:50.620Z,44.92
2019-03-30T12:54:49.196Z,46.36
2019-03-30T12:55:49.848Z,47.32
2019-03-30T12:56:49.203Z,47.63
2019-03-30T12:57:49.158Z,46.28
2019-03-30T12:58:49.171Z,44.75
2019-03-30T12:59:51.154Z,44.92
2019-03-30T13:00:49.170Z,45.01
2019-03-30T13:01:49.182Z,44.63
2019-03-30T13:02:49.189Z,45.04
2019-03-30T13:03:49.156Z,45.30
2019-03-30T13:04:49.188Z,45.11
2019-03-30T13:05:49.155Z,45.11
2019-03-30T13:06:49.158Z,45.01
2019-03-30T13:07:49.158Z,43.79
2019-03-30T13:08:49.155Z,44.84
2019-03-30T13:09:49.169Z,44.75
2019-03-30T13:10:49.148Z,43.70
2019-03-30T13:11:49.149Z,43.50
2019-03-30T13:12:49.187Z,43.79
2019-03-30T13:13:49.156Z,42.93
2019-03-30T13:14:49.164Z,42.35
2019-03-30T13:15:49.177Z,40.52
2019-03-30T13:16:49.162Z,39.37
2019-03-30T13:17:49.177Z,39.18
2019-03-30T13:18:49.241Z,38.72
2019-03-30T13:19:49.183Z,39.18
2019-03-30T13:20:49.218Z,38.34
2019-03-30T13:21:52.936Z,37.85
2019-03-30T13:22:49.153Z,36.99
2019-03-30T13:23:49.181Z,37.08
2019-03-30T13:24:49.275Z,37.57
2019-03-30T13:26:02.478Z,38.34
2019-03-30T13:26:49.150Z,37.95
2019-03-30T13:27:49.158Z,36.70
2019-03-30T13:28:49.151Z,37.27
2019-03-30T13:29:49.153Z,37.95
2019-03-30T13:30:49.161Z,38.91
2019-03-30T13:31:49.157Z,38.62
2019-03-30T13:32:49.162Z,38.04
2019-03-30T13:33:49.179Z,37.47
2019-03-30T13:34:49.181Z,37.47
2019-03-30T13:35:49.161Z,38.72
2019-03-30T13:36:49.171Z,38.14
2019-03-30T13:37:49.326Z,38.72
2019-03-30T13:38:49.155Z,39.01
2019-03-30T13:39:49.161Z,39.39
2019-03-30T13:40:49.157Z,38.34
2019-03-30T13:41:49.159Z,38.91
2019-03-30T13:42:49.161Z,39.01
2019-03-30T13:43:49.167Z,38.60
2019-03-30T13:44:49.237Z,38.34
2019-03-30T13:45:49.200Z,38.24
2019-03-30T13:46:49.166Z,36.90
2019-03-30T13:47:49.159Z,37.27
2019-03-30T13:48:49.178Z,37.27
2019-03-30T13:49:49.161Z,36.58
2019-03-30T13:50:49.167Z,37.55
2019-03-30T13:51:49.159Z,37.55
2019-03-30T13:52:49.190Z,38.12
2019-03-30T13:53:49.163Z,38.89
2019-03-30T13:54:49.170Z,38.41
2019-03-30T13:55:49.163Z,38.22
2019-03-30T13:56:49.163Z,39.18
2019-03-30T13:57:49.166Z,39.28
2019-03-30T13:58:49.162Z,38.12
2019-03-30T13:59:49.164Z,38.02
2019-03-30T14:00:49.167Z,38.32
2019-03-30T14:01:49.170Z,39.29
2019-03-30T14:02:49.185Z,37.18
2019-03-30T14:03:49.170Z,36.60
2019-03-30T14:04:52.280Z,37.08
2019-03-30T14:05:49.169Z,36.80
2019-03-30T14:06:49.172Z,36.51
2019-03-30T14:07:49.188Z,36.03
2019-03-30T14:08:49.183Z,36.51
2019-03-30T14:09:49.168Z,37.18
2019-03-30T14:10:49.164Z,36.99
2019-03-30T14:11:49.164Z,36.40
2019-03-30T14:12:49.176Z,36.60
2019-03-30T14:13:49.180Z,36.49
2019-03-30T14:14:49.166Z,36.78
2019-03-30T14:15:49.172Z,37.26
2019-03-30T14:16:49.167Z,37.35
2019-03-30T14:17:49.166Z,37.18
2019-03-30T14:18:49.420Z,37.37
2019-03-30T14:19:49.196Z,37.66
2019-03-30T14:20:49.162Z,38.34
2019-03-30T14:21:49.175Z,37.37
2019-03-30T14:22:49.170Z,36.60
2019-03-30T14:23:49.273Z,36.82
2019-03-30T14:24:49.178Z,36.15
2019-03-30T14:25:49.171Z,35.85
2019-03-30T14:26:49.178Z,36.60
2019-03-30T14:27:49.214Z,37.01
2019-03-30T14:28:49.188Z,36.15
2019-03-30T14:29:49.175Z,36.51
2019-03-30T14:30:49.181Z,36.33
2019-03-30T14:31:49.181Z,36.33
2019-03-30T14:32:49.182Z,36.91
2019-03-30T14:33:49.184Z,39.61
2019-03-30T14:34:49.178Z,38.64
2019-03-30T14:35:49.205Z,37.77
2019-03-30T14:36:49.176Z,36.82
2019-03-30T14:37:49.187Z,36.15
2019-03-30T14:38:49.181Z,35.18
2019-03-30T14:39:49.187Z,35.38
2019-03-30T14:40:49.275Z,35.57
2019-03-30T14:41:49.197Z,35.47
2019-03-30T14:42:49.235Z,35.47
2019-03-30T14:43:49.215Z,35.28
2019-03-30T14:44:49.212Z,35.38
2019-03-30T14:45:49.428Z,35.38
2019-03-30T14:46:49.180Z,35.38
2019-03-30T14:47:49.211Z,35.08
2019-03-30T14:48:49.195Z,35.28
2019-03-30T14:49:49.190Z,34.43
2019-03-30T14:50:49.186Z,34.23
2019-03-30T14:51:49.184Z,34.23
2019-03-30T14:52:49.285Z,35.10
2019-03-30T14:53:49.242Z,34.53
2019-03-30T14:54:52.929Z,34.05
2019-03-30T14:55:49.243Z,34.14
2019-03-30T14:56:49.205Z,34.14
2019-03-30T14:57:49.205Z,34.25
2019-03-30T14:58:49.218Z,33.95
2019-03-30T14:59:49.189Z,33.66
2019-03-30T15:00:49.284Z,33.95
2019-03-30T15:01:49.232Z,33.85
2019-03-30T15:02:57.956Z,34.23
2019-03-30T15:05:17.003Z,33.18
2019-03-30T15:05:53.731Z,33.08
2019-03-30T15:06:53.679Z,33.28
2019-03-30T15:07:53.673Z,33.37
2019-03-30T15:08:53.676Z,33.85
2019-03-30T15:09:53.678Z,33.95
2019-03-30T15:10:53.683Z,33.66
2019-03-30T15:11:53.678Z,33.95
2019-03-30T15:12:53.682Z,35.08
2019-03-30T15:13:53.675Z,34.99
2019-03-30T15:14:53.682Z,35.18
2019-03-30T15:15:53.682Z,36.05
2019-03-30T15:16:53.688Z,36.43
2019-03-30T15:17:53.708Z,36.53
2019-03-30T15:18:53.692Z,36.43
2019-03-30T15:19:53.684Z,35.85
2019-03-30T15:20:53.691Z,35.38
2019-03-30T15:21:53.708Z,35.47
2019-03-30T15:22:53.692Z,34.99
2019-03-30T15:23:53.693Z,34.22
2019-03-30T15:24:53.697Z,33.85
2019-03-30T15:25:53.707Z,33.95
2019-03-30T15:26:59.860Z,33.93
2019-03-30T15:28:02.386Z,35.28
2019-03-30T15:29:58.230Z,39.61
2019-03-30T15:30:58.302Z,36.53
2019-03-30T15:32:07.234Z,36.51
2019-03-30T15:34:03.748Z,35.36
2019-03-30T15:35:03.736Z,36.24
2019-03-30T15:36:03.735Z,36.33
2019-03-30T15:37:03.713Z,35.95
2019-03-30T15:38:03.760Z,35.76
2019-03-30T15:39:03.724Z,35.08
2019-03-30T15:40:12.388Z,35.08
2019-03-30T15:41:57.253Z,35.18
2019-03-30T15:42:57.204Z,39.70
2019-03-30T15:43:57.246Z,39.41
2019-03-30T15:45:08.021Z,38.84
2019-03-30T15:47:01.729Z,36.43
2019-03-30T15:48:01.743Z,35.47
2019-03-30T15:49:01.697Z,35.47
2019-03-30T15:50:01.697Z,35.38
2019-03-30T15:51:01.653Z,35.57
2019-03-30T15:52:13.279Z,35.18
2019-03-30T15:53:01.684Z,35.28
2019-03-30T15:54:01.672Z,35.38
2019-03-30T15:55:01.677Z,36.15
2019-03-30T15:56:01.664Z,37.77
2019-03-30T15:57:13.449Z,38.74
2019-03-30T15:58:01.660Z,36.62
2019-03-30T15:59:01.664Z,37.01
2019-03-30T16:00:01.670Z,36.62
2019-03-30T16:01:01.667Z,36.72
2019-03-30T16:02:01.668Z,36.24
2019-03-30T16:03:01.672Z,38.45
2019-03-30T16:04:02.641Z,37.10
2019-03-30T16:05:01.692Z,36.24
2019-03-30T16:06:01.800Z,36.62
2019-03-30T16:07:01.664Z,36.15
2019-03-30T16:08:01.679Z,36.15
2019-03-30T16:09:01.671Z,37.30
2019-03-30T16:10:01.680Z,36.72
2019-03-30T16:11:01.695Z,35.38
2019-03-30T16:12:01.679Z,37.68
2019-03-30T16:13:01.673Z,39.70
2019-03-30T16:14:01.716Z,37.01
2019-03-30T16:15:01.737Z,37.87
2019-03-30T16:16:01.792Z,40.56
2019-03-30T16:17:01.699Z,38.35
2019-03-30T16:18:01.708Z,37.18